METAR Data
IDs: Format: Raw Decoded Include TAF

Data at: 2106 UTC 19 May 2019

PFKT 192056Z AUTO 22005KT 10SM OVC025 04/01 A2992 RMK AO2 SLP131 T00440006 58001
PFKT 191956Z AUTO 22004KT 10SM OVC025 03/01 A2992 RMK AO2 SLP132 T00330011
PFKT 191856Z AUTO 19004KT 10SM OVC025 04/01 A2992 RMK AO2 SLP133 T00390011
PFKT 191756Z AUTO 00000KT 10SM OVC023 02/01 A2992 RMK AO2 SLP132 T00220006 10033 20011 52006 FZRANO
PFKT 191656Z AUTO 31003KT 10SM OVC017 03/01 A2992 RMK AO2 SLP131 T00280011
PFKT 191606Z AUTO 34005KT 10SM OVC015 02/01 A2991 RMK AO2 FZRANO
PFKT 191556Z AUTO 33003KT 5SM BR OVC013 02/01 A2991 RMK AO2 SLP127 T00170011 FZRANO
PFKT 191456Z AUTO 24004KT 9SM OVC009 01/01 A2990 RMK AO2 SLP126 T00110006 53010 FZRANO
PFKT 191356Z AUTO 28003KT 10SM OVC009 02/00 A2989 RMK AO2 SLP122 T00170000 FZRANO
PFKT 191322Z AUTO 33004KT 10SM OVC009 02/00 A2989 RMK AO2 FZRANO
PFKT 191256Z AUTO 00000KT 10SM OVC011 02/00 A2988 RMK AO2 SLP119 T00170000 FZRANO
PFKT 191225Z AUTO 32004KT 10SM OVC009 02/00 A2988 RMK AO2 FZRANO
PFKT 191156Z AUTO 34004KT 10SM OVC011 02/00 A2987 RMK AO2 SLP116 T00170000 10022 20011 51009 FZRANO
PFKT 191127Z AUTO 32005KT 10SM OVC013 01/00 A2987 RMK AO2 FZRANO
PFKT 191056Z AUTO 31005KT 10SM OVC015 01/00 A2987 RMK AO2 SLP115 T00110000 FZRANO
PFKT 190956Z AUTO 32007KT 10SM OVC017 01/M01 A2986 RMK AO2 SLP112 T00111006 FZRANO
PFKT 190856Z AUTO 33004KT 10SM BKN019 OVC030 02/00 A2985 RMK AO2 SLP107 T00170000 400500000 52014 FZRANO
PFKT 190756Z AUTO 32005KT 10SM OVC017 02/00 A2984 RMK AO2 SLP103 T00170000 FZRANO
PFKT 190741Z AUTO 31007KT 10SM BKN017 OVC026 02/00 A2983 RMK AO2 FZRANO
PFKT 190705Z AUTO 31008KT 10SM BKN010 OVC034 02/00 A2982 RMK AO2 FZRANO
PFKT 190656Z AUTO 31009KT 10SM SCT012 OVC034 02/00 A2982 RMK AO2 SLP097 T00170000 FZRANO
PFKT 190640Z AUTO 27007KT 10SM SCT015 OVC034 02/00 A2981 RMK AO2 FZRANO
PFKT 190556Z AUTO 29008KT 10SM SCT012 BKN016 OVC036 02/01 A2981 RMK AO2 SLP093 60000 T00220006 10050 20022 53009 FZRANO
PFKT 190456Z AUTO 29007KT 10SM OVC034 03/01 A2979 RMK AO2 SLP088 T00330011
PFKT 190425Z AUTO VRB03KT 10SM FEW014 SCT021 OVC034 04/02 A2978 RMK AO2
PFKT 190356Z AUTO 31007KT 10SM SCT014 BKN021 OVC030 04/02 A2978 RMK AO2 SLP084 T00390022
PFKT 190351Z AUTO 32007KT 10SM SCT014 BKN023 OVC030 04/02 A2978 RMK AO2
PFKT 190342Z AUTO 31006KT 10SM SCT021 OVC030 04/02 A2978 RMK AO2
PFKT 190256Z AUTO 29006KT 10SM OVC022 03/01 A2978 RMK AO2 SLP082 60000 T00330011 53004
PFKT 190156Z AUTO 19007KT 10SM OVC022 04/02 A2977 RMK AO2 RAE43 SLP080 P0000 T00440017
PFKT 190056Z AUTO 00000KT 10SM -RA OVC020 04/02 A2977 RMK AO2 RAB2358 SLP079 P0000 T00440017
PFKT 182356Z AUTO 29003KT 4SM BR BKN018 OVC025 03/02 A2976 RMK AO2 SLP079 T00330017 10039 20017 51020
PFKT 182338Z AUTO 29003KT 10SM SCT009 BKN016 OVC025 03/02 A2976 RMK AO2
PFKT 182256Z AUTO 21004KT 10SM OVC011 02/01 A2975 RMK AO2 SLP074 T00220006 FZRANO
PFKT 182241Z AUTO 22006KT 10SM OVC013 02/00 A2975 RMK AO2 FZRANO
PFKT 182156Z AUTO 03008KT 10SM OVC015 04/01 A2973 RMK AO2 SLP065 T00390006
PFKT 182056Z AUTO 03011KT 10SM OVC021 03/01 A2971 RMK AO2 SLP059 T00330006 51006
PFKT 182029Z AUTO 03011KT 10SM BKN023 OVC033 03/01 A2970 RMK AO2
PFKT 182011Z AUTO 03011KT 10SM OVC032 03/01 A2970 RMK AO2
PFKT 181956Z AUTO 03011KT 10SM BKN028 OVC035 04/01 A2970 RMK AO2 SLP057 T00390011
PFKT 181954Z AUTO 03012KT 10SM BKN028 OVC035 04/01 A2970 RMK AO2
PFKT 181856Z AUTO 02010KT 10SM OVC039 03/01 A2969 RMK AO2 SLP053 T00330011
PFKT 181841Z AUTO 02012KT 10SM FEW011 OVC037 03/01 A2969 RMK AO2
PFKT 181756Z AUTO 02010KT 10SM OVC011 02/01 A2968 RMK AO2 SLP050 T00220006 10022 20000 53010 FZRANO
PFKT 181656Z AUTO 02010KT 10SM OVC011 02/00 A2967 RMK AO2 SLP047 T00170000 FZRANO
PFKT 181556Z AUTO 03013KT 10SM BKN013 02/M01 A2966 RMK AO2 SLP042 T00171006 FZRANO
PFKT 181356Z AUTO 03014KT 10SM CLR 01/M01 A2964 RMK AO2 SLP038 T00111011 FZRANO
PFKT 181256Z AUTO 02011KT 10SM CLR 01/M01 A2964 RMK AO2 SLP036 T00111011 FZRANO
PFKT 181156Z AUTO 02013KT 10SM CLR 02/M01 A2963 RMK AO2 SLP034 T00171011 10033 20006 51006 FZRANO
PFKT 181056Z AUTO 03016G20KT 10SM CLR 01/M01 A2963 RMK AO2 SLP033 T00061011 FZRANO
PFKT 180956Z AUTO 03016KT 10SM CLR 01/M01 A2962 RMK AO2 SLP030 T00061011 FZRANO